ADDS TAF Data INFO
IDs: Format: Raw Decoded Include METARs

Data at: 0401 UTC 17 Jul 2018

KSEZ 170355Z AUTO 03005KT 10SM CLR 23/13 A3017 RMK AO2 LTG DSNT E AND SE

KSEZ 162320Z 1700/1724 VRB06KT P6SM VCTS SCT090CB BKN180
  TEMPO 1700/1702 VRB10G20KT 5SM TSRA BKN050CB
  FM170200 VRB05KT P6SM SCT060 BKN120
  TEMPO 1719/1723 VRB10G20KT 5SM TSRA BKN050CB